createdAt,value
2019-04-10T00:01:19.556Z,37.35
2019-04-10T00:04:16.206Z,38.90
2019-04-10T00:07:18.405Z,40.20
2019-04-10T00:10:15.985Z,37.95
2019-04-10T00:13:12.721Z,36.25
2019-04-10T00:16:08.699Z,39.48
2019-04-10T00:19:06.558Z,39.55
2019-04-10T00:22:04.192Z,38.85
2019-04-10T00:25:02.336Z,43.87
2019-04-10T00:27:59.256Z,36.25
2019-04-10T00:30:59.730Z,42.70
2019-04-10T00:33:56.843Z,39.78
2019-04-10T00:36:53.398Z,37.23
2019-04-10T00:39:50.843Z,37.88
2019-04-10T00:42:47.535Z,40.05
2019-04-10T00:45:44.656Z,36.68
2019-04-10T00:48:41.791Z,37.25
2019-04-10T00:51:38.103Z,37.75
2019-04-10T00:54:37.237Z,35.63
2019-04-10T00:57:33.830Z,36.13
2019-04-10T01:00:30.868Z,35.73
2019-04-10T01:03:43.711Z,36.80
2019-04-10T01:06:40.144Z,38.40
2019-04-10T01:09:37.513Z,40.90
2019-04-10T01:12:34.279Z,34.08
2019-04-10T01:15:34.362Z,35.63
2019-04-10T01:18:31.347Z,37.35
2019-04-10T01:21:33.151Z,38.13
2019-04-10T01:24:30.048Z,36.17
2019-04-10T01:27:27.776Z,38.50
2019-04-10T01:30:24.727Z,39.90
2019-04-10T01:33:21.428Z,42.43
2019-04-10T01:36:18.535Z,36.38
2019-04-10T01:39:22.267Z,39.15
2019-04-10T01:42:19.021Z,34.90
2019-04-10T01:45:15.449Z,36.95
2019-04-10T01:48:12.097Z,38.78
2019-04-10T01:51:08.709Z,41.10
2019-04-10T01:54:05.477Z,37.40
2019-04-10T01:57:02.796Z,40.30
2019-04-10T01:59:58.515Z,38.60
2019-04-10T02:02:55.845Z,37.55
2019-04-10T02:05:52.790Z,37.90
2019-04-10T02:08:49.997Z,37.25
2019-04-10T02:11:48.155Z,37.00
2019-04-10T02:14:44.888Z,36.30
2019-04-10T02:17:41.577Z,40.60
2019-04-10T02:20:37.498Z,37.55
2019-04-10T02:23:34.336Z,39.30
2019-04-10T02:26:31.736Z,36.48
2019-04-10T02:29:28.341Z,40.40
2019-04-10T02:32:26.504Z,37.38
2019-04-10T02:35:24.586Z,37.48
2019-04-10T02:38:40.052Z,37.67
2019-04-10T02:41:19.404Z,39.67
2019-04-10T02:44:16.426Z,37.42
2019-04-10T02:47:19.281Z,39.88
2019-04-10T02:50:18.637Z,40.80
2019-04-10T02:53:16.980Z,43.05
2019-04-10T02:56:13.707Z,38.83
2019-04-10T02:59:11.250Z,36.23
2019-04-10T03:02:08.565Z,39.80
2019-04-10T03:05:07.114Z,41.20
2019-04-10T03:08:06.864Z,37.63
2019-04-10T03:11:06.614Z,36.55
2019-04-10T03:14:01.645Z,38.55
2019-04-10T03:16:57.944Z,41.53
2019-04-10T03:19:54.292Z,37.50
2019-04-10T03:22:51.412Z,40.98
2019-04-10T03:25:48.857Z,39.33
2019-04-10T03:28:47.149Z,38.70
2019-04-10T03:31:42.987Z,39.67
2019-04-10T03:34:40.995Z,36.40
2019-04-10T03:37:36.443Z,38.75
2019-04-10T03:40:35.406Z,40.95
2019-04-10T03:43:31.961Z,34.92
2019-04-10T03:46:29.711Z,39.45
2019-04-10T03:49:29.622Z,37.17
2019-04-10T03:52:27.448Z,39.18
2019-04-10T03:55:25.143Z,39.73
2019-04-10T03:58:23.203Z,38.08
2019-04-10T04:01:25.074Z,38.10
2019-04-10T04:04:25.794Z,43.55
2019-04-10T04:07:25.449Z,44.18
2019-04-10T04:10:20.559Z,35.95
2019-04-10T04:13:17.477Z,40.60
2019-04-10T04:16:15.013Z,40.60
2019-04-10T04:19:12.144Z,40.45
2019-04-10T04:22:08.504Z,42.80
2019-04-10T04:25:08.577Z,42.10
2019-04-10T04:28:04.893Z,39.80
2019-04-10T04:31:01.006Z,39.75
2019-04-10T04:33:58.349Z,38.98
2019-04-10T04:36:54.534Z,40.45
2019-04-10T04:39:50.541Z,43.35
2019-04-10T04:42:47.187Z,38.42
2019-04-10T04:45:46.398Z,36.40
2019-04-10T04:48:43.380Z,38.70
2019-04-10T04:51:40.202Z,42.50
2019-04-10T04:54:35.770Z,34.27
2019-04-10T04:57:35.228Z,37.35
2019-04-10T05:00:30.573Z,35.38
2019-04-10T05:04:05.416Z,32.95
2019-04-10T05:07:01.584Z,32.15
2019-04-10T05:09:59.916Z,35.83
2019-04-10T05:12:55.809Z,32.13
2019-04-10T05:15:53.361Z,34.83
2019-04-10T05:18:50.204Z,36.05
2019-04-10T05:21:47.698Z,32.67
2019-04-10T05:24:44.639Z,37.53
2019-04-10T05:27:41.536Z,41.40
2019-04-10T05:30:38.864Z,32.08
2019-04-10T05:33:36.598Z,32.20
2019-04-10T05:36:33.443Z,27.70
2019-04-10T05:39:42.362Z,31.85
2019-04-10T05:42:29.094Z,34.10
2019-04-10T05:45:25.783Z,30.50
2019-04-10T05:48:24.019Z,30.70
2019-04-10T05:51:21.331Z,28.45
2019-04-10T05:54:19.113Z,27.15
2019-04-10T05:57:18.024Z,27.00
2019-04-10T06:00:16.728Z,28.17
2019-04-10T06:03:12.787Z,26.85
2019-04-10T06:06:08.996Z,27.20
2019-04-10T06:09:08.833Z,27.50
2019-04-10T06:12:05.821Z,28.25
2019-04-10T06:15:02.569Z,25.37
2019-04-10T06:17:58.791Z,25.27
2019-04-10T06:20:56.609Z,29.35
2019-04-10T06:23:54.217Z,25.12
2019-04-10T06:26:50.218Z,30.40
2019-04-10T06:29:47.668Z,31.93
2019-04-10T06:32:45.349Z,25.48
2019-04-10T06:35:42.339Z,28.50
2019-04-10T06:38:39.205Z,25.77
2019-04-10T06:41:36.815Z,26.15
2019-04-10T06:44:34.962Z,27.32
2019-04-10T06:47:31.538Z,26.57
2019-04-10T06:50:30.099Z,23.10
2019-04-10T06:53:26.877Z,25.27
2019-04-10T06:56:23.107Z,22.75
2019-04-10T06:59:20.927Z,22.90
2019-04-10T07:02:24.556Z,25.08
2019-04-10T07:05:16.544Z,18.30
2019-04-10T07:08:17.222Z,24.30
2019-04-10T07:11:13.485Z,20.65
2019-04-10T07:14:13.970Z,15.80
2019-04-10T07:17:09.268Z,17.73
2019-04-10T07:20:07.776Z,17.25
2019-04-10T07:23:04.925Z,19.62
2019-04-10T07:26:01.926Z,16.65
2019-04-10T07:28:58.822Z,16.40
2019-04-10T07:31:55.636Z,14.80
2019-04-10T07:34:57.419Z,15.00
2019-04-10T07:37:54.304Z,21.33
2019-04-10T07:40:47.021Z,17.30
2019-04-10T07:43:42.702Z,17.83
2019-04-10T07:46:40.222Z,19.50
2019-04-10T07:49:39.473Z,18.30
2019-04-10T07:52:34.902Z,17.53
2019-04-10T07:55:33.126Z,12.03
2019-04-10T07:58:29.341Z,12.30
2019-04-10T08:01:24.845Z,11.60
2019-04-10T08:04:20.592Z,15.27
2019-04-10T08:07:26.610Z,13.57
2019-04-10T08:10:15.840Z,11.70
2019-04-10T08:13:14.113Z,11.37
2019-04-10T08:16:10.697Z,12.80
2019-04-10T08:19:08.278Z,12.40
2019-04-10T08:22:06.192Z,17.10
2019-04-10T08:25:02.421Z,15.27
2019-04-10T08:27:58.562Z,19.43
2019-04-10T08:30:54.718Z,15.70
2019-04-10T08:33:51.315Z,15.23
2019-04-10T08:36:47.986Z,12.53
2019-04-10T08:39:47.319Z,14.13
2019-04-10T08:42:45.024Z,11.50
2019-04-10T08:45:46.381Z,15.40
2019-04-10T08:48:36.848Z,13.47
2019-04-10T08:51:33.232Z,14.60
2019-04-10T08:54:30.099Z,14.77
2019-04-10T08:57:27.746Z,15.70
2019-04-10T09:00:24.803Z,13.87
2019-04-10T09:03:20.622Z,14.77
2019-04-10T09:06:17.435Z,13.43
2019-04-10T09:09:13.196Z,12.77
2019-04-10T09:12:09.401Z,13.90
2019-04-10T09:15:07.810Z,19.43
2019-04-10T09:18:04.565Z,13.67
2019-04-10T09:21:00.743Z,14.43
2019-04-10T09:23:58.085Z,17.00
2019-04-10T09:26:57.087Z,14.30
2019-04-10T09:29:54.159Z,12.97
2019-04-10T09:32:50.711Z,15.07
2019-04-10T09:35:47.473Z,11.73
2019-04-10T09:38:45.255Z,15.60
2019-04-10T09:41:41.911Z,11.73
2019-04-10T09:44:38.444Z,12.63
2019-04-10T09:47:35.361Z,13.60
2019-04-10T09:50:31.160Z,14.60
2019-04-10T09:53:28.767Z,12.17
2019-04-10T09:56:25.720Z,13.27
2019-04-10T09:59:33.173Z,14.30
2019-04-10T10:02:20.206Z,12.40
2019-04-10T10:05:18.239Z,12.67
2019-04-10T10:08:14.244Z,12.60
2019-04-10T10:11:11.599Z,12.67
2019-04-10T10:14:08.306Z,14.47
2019-04-10T10:17:04.980Z,13.03
2019-04-10T10:20:01.681Z,13.13
2019-04-10T10:22:59.249Z,12.87
2019-04-10T10:25:59.511Z,9.13
2019-04-10T10:28:54.594Z,9.37
2019-04-10T10:31:52.574Z,13.80
2019-04-10T10:34:48.757Z,12.40
2019-04-10T10:37:44.426Z,10.87
2019-04-10T10:40:40.164Z,11.60
2019-04-10T10:43:36.987Z,13.50
2019-04-10T10:46:35.547Z,10.20
2019-04-10T10:49:34.703Z,10.60
2019-04-10T10:52:33.296Z,13.83
2019-04-10T10:55:29.714Z,11.30
2019-04-10T10:58:26.254Z,9.80
2019-04-10T11:01:22.330Z,14.60
2019-04-10T11:04:19.100Z,10.90
2019-04-10T11:07:22.655Z,9.73
2019-04-10T11:10:24.085Z,13.60
2019-04-10T11:13:18.912Z,10.33
2019-04-10T11:16:16.836Z,14.90
2019-04-10T11:19:15.340Z,14.20
2019-04-10T11:22:12.804Z,11.37
2019-04-10T11:25:12.154Z,14.13
2019-04-10T11:28:07.806Z,16.33
2019-04-10T11:31:04.632Z,14.23
2019-04-10T11:34:02.822Z,13.20
2019-04-10T11:37:16.584Z,12.50
2019-04-10T11:40:01.008Z,14.90
2019-04-10T11:42:55.585Z,11.37
2019-04-10T11:45:55.808Z,14.37
2019-04-10T11:48:51.658Z,14.50
2019-04-10T11:51:48.675Z,13.07
2019-04-10T11:54:46.494Z,12.27
2019-04-10T11:57:45.874Z,11.53
2019-04-10T12:00:50.556Z,13.10
2019-04-10T12:03:44.220Z,11.87
2019-04-10T12:06:39.360Z,12.50
2019-04-10T12:12:31.816Z,14.67
2019-04-10T12:15:28.428Z,13.80
2019-04-10T12:18:28.701Z,17.93
2019-04-10T12:21:26.217Z,14.77
2019-04-10T12:24:23.781Z,12.80
2019-04-10T12:27:21.392Z,12.27
2019-04-10T12:30:19.390Z,14.50
2019-04-10T12:33:17.128Z,13.90
2019-04-10T12:36:14.121Z,17.07
2019-04-10T12:39:14.147Z,13.83
2019-04-10T12:42:14.183Z,14.40
2019-04-10T12:45:11.431Z,16.40
2019-04-10T12:48:08.404Z,15.57
2019-04-10T12:51:05.620Z,16.23
2019-04-10T12:54:02.603Z,19.33
2019-04-10T12:56:58.934Z,16.73
2019-04-10T13:00:01.199Z,14.67
2019-04-10T13:02:53.138Z,15.67
2019-04-10T13:05:51.504Z,13.27
2019-04-10T13:09:00.034Z,12.37
2019-04-10T13:11:44.877Z,14.33
2019-04-10T13:14:43.118Z,18.17
2019-04-10T13:17:40.763Z,12.77
2019-04-10T13:20:37.857Z,14.83
2019-04-10T13:23:34.995Z,14.23
2019-04-10T13:26:32.318Z,10.93
2019-04-10T13:29:30.050Z,12.67
2019-04-10T13:32:27.666Z,14.83
2019-04-10T13:35:26.162Z,11.77
2019-04-10T13:38:28.646Z,14.33
2019-04-10T13:41:19.305Z,12.10
2019-04-10T13:44:16.298Z,11.47
2019-04-10T13:47:11.948Z,13.10
2019-04-10T13:50:08.755Z,11.83
2019-04-10T13:53:05.788Z,10.90
2019-04-10T13:56:02.824Z,14.00
2019-04-10T13:58:58.443Z,15.80
2019-04-10T14:01:54.936Z,12.87
2019-04-10T14:04:51.520Z,12.50
2019-04-10T14:07:49.301Z,11.30
2019-04-10T14:10:46.840Z,13.50
2019-04-10T14:13:42.589Z,12.40
2019-04-10T14:16:39.327Z,12.70
2019-04-10T14:19:36.010Z,12.67
2019-04-10T14:22:33.477Z,11.60
2019-04-10T14:25:52.481Z,12.97
2019-04-10T14:28:49.256Z,11.93
2019-04-10T14:31:53.163Z,10.37
2019-04-10T14:34:50.492Z,15.30
2019-04-10T14:37:46.517Z,13.80
2019-04-10T14:40:42.875Z,11.53
2019-04-10T14:43:39.718Z,12.50
2019-04-10T14:46:36.696Z,10.30
2019-04-10T14:49:33.447Z,11.30
2019-04-10T14:52:29.512Z,10.73
2019-04-10T14:55:25.368Z,12.43
2019-04-10T14:58:27.520Z,13.37
2019-04-10T15:01:19.820Z,12.73
2019-04-10T15:04:17.298Z,11.33
2019-04-10T15:07:12.747Z,16.40
2019-04-10T15:10:10.686Z,11.87
2019-04-10T15:13:10.054Z,13.83
2019-04-10T15:16:05.032Z,13.80
2019-04-10T15:19:02.510Z,11.73
2019-04-10T15:21:59.180Z,9.27
2019-04-10T15:24:54.920Z,11.93
2019-04-10T15:27:51.686Z,13.17
2019-04-10T15:30:47.994Z,11.53
2019-04-10T15:33:44.490Z,12.70
2019-04-10T15:36:43.496Z,14.17
2019-04-10T15:39:40.273Z,13.50
2019-04-10T15:42:37.387Z,13.70
2019-04-10T15:45:34.085Z,11.40
2019-04-10T15:48:30.170Z,9.33
2019-04-10T15:51:26.379Z,12.68
2019-04-10T15:54:23.659Z,12.88
2019-04-10T15:57:20.353Z,10.28
2019-04-10T16:00:16.967Z,11.38
2019-04-10T16:03:14.069Z,12.63
2019-04-10T16:06:11.133Z,9.45
2019-04-10T16:09:09.207Z,12.47
2019-04-10T16:12:12.354Z,10.88
2019-04-10T16:15:11.189Z,9.80
2019-04-10T16:18:11.532Z,11.60
2019-04-10T16:21:08.307Z,9.88
2019-04-10T16:24:08.731Z,10.90
2019-04-10T16:27:07.625Z,22.67
2019-04-10T16:30:06.387Z,12.47
2019-04-10T16:33:02.932Z,10.60
2019-04-10T16:35:59.147Z,10.50
2019-04-10T16:38:55.454Z,11.03
2019-04-10T16:41:52.322Z,12.98
2019-04-10T16:44:49.748Z,12.50
2019-04-10T16:47:46.539Z,12.28
2019-04-10T16:50:50.365Z,11.40
2019-04-10T16:53:46.500Z,11.08
2019-04-10T16:56:43.325Z,12.50
2019-04-10T16:59:44.348Z,15.18
2019-04-10T17:02:44.650Z,11.83
2019-04-10T17:05:41.884Z,9.98
2019-04-10T17:08:38.996Z,16.90
2019-04-10T17:11:36.877Z,13.13
2019-04-10T17:14:32.804Z,11.57
2019-04-10T17:17:30.488Z,12.28
2019-04-10T17:20:28.798Z,11.97
2019-04-10T17:23:26.829Z,15.03
2019-04-10T17:26:24.736Z,12.78
2019-04-10T17:29:21.561Z,12.18
2019-04-10T17:32:19.326Z,11.88
2019-04-10T17:35:17.035Z,12.98
2019-04-10T17:38:15.041Z,13.55
2019-04-10T17:41:11.341Z,10.78
2019-04-10T17:44:09.534Z,11.50
2019-04-10T17:47:09.800Z,18.82
2019-04-10T17:50:07.724Z,12.43
2019-04-10T17:53:07.344Z,12.15
2019-04-10T17:56:04.212Z,15.65
2019-04-10T17:59:02.342Z,15.72
2019-04-10T18:02:01.259Z,13.43
2019-04-10T18:04:58.634Z,13.58
2019-04-10T18:07:56.545Z,13.62
2019-04-10T18:10:54.458Z,14.18
2019-04-10T18:13:51.491Z,11.80
2019-04-10T18:16:47.554Z,14.58
2019-04-10T18:19:44.132Z,17.00
2019-04-10T18:22:40.716Z,12.90
2019-04-10T18:25:38.195Z,11.20
2019-04-10T18:28:36.404Z,13.40
2019-04-10T18:31:33.135Z,13.58
2019-04-10T18:34:30.293Z,12.07
2019-04-10T18:37:28.674Z,15.38
2019-04-10T18:40:25.420Z,14.63
2019-04-10T18:43:22.297Z,13.10
2019-04-10T18:46:20.813Z,12.68
2019-04-10T18:49:16.854Z,13.10
2019-04-10T18:52:15.099Z,13.10
2019-04-10T18:55:12.469Z,11.75
2019-04-10T18:58:14.081Z,12.70
2019-04-10T19:01:28.749Z,15.75
2019-04-10T19:04:41.303Z,12.82
2019-04-10T19:07:40.570Z,13.83
2019-04-10T19:10:39.451Z,14.18
2019-04-10T19:13:36.638Z,15.43
2019-04-10T19:16:35.001Z,14.00
2019-04-10T19:19:32.597Z,14.20
2019-04-10T19:22:28.553Z,12.15
2019-04-10T19:25:25.564Z,12.73
2019-04-10T19:28:30.295Z,16.02
2019-04-10T19:31:23.014Z,16.65
2019-04-10T19:34:18.275Z,14.38
2019-04-10T19:37:16.332Z,15.50
2019-04-10T19:40:13.914Z,12.82
2019-04-10T19:43:10.747Z,13.85
2019-04-10T19:46:08.698Z,15.23
2019-04-10T19:49:06.061Z,13.10
2019-04-10T19:52:04.492Z,14.53
2019-04-10T19:55:03.279Z,13.43
2019-04-10T19:57:59.850Z,14.68
2019-04-10T20:00:56.885Z,14.25
2019-04-10T20:03:54.187Z,14.35
2019-04-10T20:06:52.234Z,15.80
2019-04-10T20:09:48.581Z,16.30
2019-04-10T20:12:45.014Z,14.43
2019-04-10T20:15:42.702Z,17.00
2019-04-10T20:18:39.711Z,15.03
2019-04-10T20:21:37.396Z,13.80
2019-04-10T20:24:34.686Z,10.45
2019-04-10T20:27:32.075Z,11.03
2019-04-10T20:30:32.735Z,14.50
2019-04-10T20:33:30.460Z,13.58
2019-04-10T20:36:28.994Z,12.68
2019-04-10T20:39:27.511Z,12.43
2019-04-10T20:42:25.162Z,10.48
2019-04-10T20:45:21.743Z,17.12
2019-04-10T20:48:17.813Z,13.03
2019-04-10T20:51:14.483Z,11.75
2019-04-10T20:54:10.990Z,12.35
2019-04-10T20:57:07.624Z,12.28
2019-04-10T21:00:07.866Z,13.68
2019-04-10T21:03:04.984Z,12.98
2019-04-10T21:06:02.174Z,12.98
2019-04-10T21:08:59.092Z,13.83
2019-04-10T21:12:02.110Z,12.15
2019-04-10T21:14:54.681Z,12.73
2019-04-10T21:17:52.786Z,13.48
2019-04-10T21:20:51.134Z,15.63
2019-04-10T21:23:48.679Z,13.25
2019-04-10T21:26:46.442Z,14.98
2019-04-10T21:29:59.339Z,15.13
2019-04-10T21:33:03.880Z,14.98
2019-04-10T21:36:00.295Z,14.07
2019-04-10T21:38:57.290Z,15.00
2019-04-10T21:41:53.687Z,13.25
2019-04-10T21:44:51.307Z,13.20
2019-04-10T21:47:48.618Z,14.15
2019-04-10T21:50:45.998Z,14.87
2019-04-10T21:53:42.626Z,12.13
2019-04-10T21:56:40.923Z,17.98
2019-04-10T21:59:38.917Z,12.20
2019-04-10T22:02:35.808Z,13.58
2019-04-10T22:05:34.614Z,16.87
2019-04-10T22:08:37.431Z,14.83
2019-04-10T22:11:33.262Z,15.98
2019-04-10T22:14:30.195Z,13.28
2019-04-10T22:17:27.324Z,12.93
2019-04-10T22:20:24.161Z,13.03
2019-04-10T22:23:20.939Z,14.43
2019-04-10T22:26:17.919Z,13.28
2019-04-10T22:29:15.006Z,15.23
2019-04-10T22:32:14.167Z,15.55
2019-04-10T22:35:11.019Z,16.82
2019-04-10T22:38:06.879Z,14.95
2019-04-10T22:41:08.340Z,13.75
2019-04-10T22:44:01.277Z,13.35
2019-04-10T22:46:57.368Z,13.40
2019-04-10T22:49:53.641Z,15.03
2019-04-10T22:52:50.763Z,16.07
2019-04-10T22:55:48.524Z,13.65
2019-04-10T22:58:45.533Z,13.20
2019-04-10T23:01:43.264Z,14.30
2019-04-10T23:04:39.421Z,16.80
2019-04-10T23:07:36.167Z,13.13
2019-04-10T23:10:33.230Z,15.18
2019-04-10T23:13:30.188Z,14.23
2019-04-10T23:16:26.247Z,16.40
2019-04-10T23:19:22.467Z,13.15
2019-04-10T23:22:18.878Z,12.68
2019-04-10T23:25:18.317Z,12.80
2019-04-10T23:28:14.058Z,13.18
2019-04-10T23:31:10.109Z,12.68
2019-04-10T23:34:06.677Z,15.20
2019-04-10T23:37:02.677Z,18.42
2019-04-10T23:40:00.689Z,13.90
2019-04-10T23:43:07.751Z,14.20
2019-04-10T23:45:56.117Z,12.40
2019-04-10T23:48:55.407Z,13.20
2019-04-10T23:51:51.738Z,15.35
2019-04-10T23:54:49.243Z,12.25
2019-04-10T23:57:45.449Z,13.40
